Time;durP1;ratioP1;P1;durP2;ratioP2;P2;SDS_P1;SDS_P2;PMS_P1;PMS_P2;Temp;Humidity;BMP_temperature;BMP_pressure;BME280_temperature;BME280_humidity;BME280_pressure;Samples;Min_cycle;Max_cycle;Signal;HPM_P1;HPM_P2
2023/06/16 00:01:41;;;;;;;25.40;12.88;;;;;;;15.31;100.00;98443.84;5020587;28;20052;-94
2023/06/16 00:04:08;;;;;;;23.23;12.35;;;;;;;15.20;100.00;98416.72;5023230;28;20037;-93
2023/06/16 00:06:36;;;;;;;31.42;14.32;;;;;;;15.36;100.00;98457.84;5032378;28;20072;-92
2023/06/16 00:09:02;;;;;;;24.15;12.63;;;;;;;15.26;100.00;98461.94;5028289;28;20054;-92
2023/06/16 00:11:29;;;;;;;25.40;12.38;;;;;;;15.04;100.00;98429.16;5018712;28;20140;-94
2023/06/16 00:13:56;;;;;;;25.30;13.20;;;;;;;15.03;100.00;98446.16;5019315;28;20407;-93
2023/06/16 00:16:23;;;;;;;28.15;12.73;;;;;;;15.03;100.00;98455.09;5019516;28;20049;-92
2023/06/16 00:18:51;;;;;;;25.80;13.15;;;;;;;14.77;100.00;98417.09;5022446;28;20041;-93
2023/06/16 00:21:19;;;;;;;27.37;12.77;;;;;;;14.82;100.00;98429.38;5018782;28;20097;-92
2023/06/16 00:23:46;;;;;;;28.20;12.98;;;;;;;14.71;100.00;98419.22;5019275;28;20366;-93
2023/06/16 00:26:12;;;;;;;27.17;13.25;;;;;;;14.67;100.00;98422.97;5019040;28;20060;-95
2023/06/16 00:28:40;;;;;;;26.75;12.82;;;;;;;14.71;100.00;98433.44;5020143;28;20037;-93
2023/06/16 00:31:06;;;;;;;24.27;13.40;;;;;;;14.70;100.00;98438.88;5021715;28;20388;-93
2023/06/16 00:33:34;;;;;;;24.88;13.02;;;;;;;14.51;100.00;98413.00;5029286;28;20064;-92
2023/06/16 00:36:00;;;;;;;25.20;12.30;;;;;;;14.49;100.00;98412.19;5020344;28;20099;-94
2023/06/16 00:38:27;;;;;;;25.95;13.15;;;;;;;14.48;100.00;98426.50;5018821;28;20582;-94
2023/06/16 00:40:53;;;;;;;24.92;12.40;;;;;;;14.60;100.00;98441.13;5018931;28;20033;-93
2023/06/16 00:43:20;;;;;;;24.35;12.68;;;;;;;14.60;100.00;98443.81;5030989;28;20038;-93
2023/06/16 00:45:48;;;;;;;25.63;13.35;;;;;;;14.45;100.00;98418.63;5021266;28;20049;-92
2023/06/16 00:48:15;;;;;;;28.40;13.48;;;;;;;14.54;100.00;98449.44;5039307;28;20529;-93
2023/06/16 00:50:43;;;;;;;27.83;13.77;;;;;;;14.59;100.00;98450.09;5021887;28;20499;-92
2023/06/16 00:53:09;;;;;;;28.10;13.90;;;;;;;14.45;100.00;98423.13;5018459;28;20037;-93
2023/06/16 00:55:38;;;;;;;30.48;14.63;;;;;;;14.48;100.00;98439.88;5018979;28;20049;-93
2023/06/16 00:58:04;;;;;;;26.50;13.85;;;;;;;14.42;100.00;98441.97;5032746;28;20060;-93
2023/06/16 01:00:35;;;;;;;26.33;12.35;;;;;;;14.50;100.00;98448.69;5019279;28;20069;-92
2023/06/16 01:03:02;;;;;;;29.90;14.35;;;;;;;14.52;100.00;98460.19;5018151;28;20411;-92
2023/06/16 01:05:28;;;;;;;27.00;12.75;;;;;;;14.34;100.00;98426.31;5018954;28;20041;-93
2023/06/16 01:08:12;;;;;;;27.17;13.23;;;;;;;14.35;100.00;98444.94;5035238;28;20116;-92
2023/06/16 01:10:48;;;;;;;27.92;14.07;;;;;;;14.46;100.00;98464.97;5018107;28;20125;-92
2023/06/16 01:13:21;;;;;;;28.90;14.25;;;;;;;14.34;100.00;98442.38;5019560;28;20052;-92
2023/06/16 01:15:48;;;;;;;26.92;13.52;;;;;;;14.27;100.00;98448.91;5019098;28;20042;-92
2023/06/16 01:18:22;;;;;;;26.95;13.05;;;;;;;14.27;100.00;98455.16;5020130;28;20050;-92
2023/06/16 01:20:53;;;;;;;26.27;13.30;;;;;;;14.12;100.00;98435.34;5020097;28;20060;-92
2023/06/16 01:23:40;;;;;;;28.25;14.13;;;;;;;14.26;100.00;98448.06;5036125;28;20137;-93
2023/06/16 01:26:10;;;;;;;29.63;14.43;;;;;;;14.32;100.00;98471.00;5019419;28;20551;-92
2023/06/16 01:28:41;;;;;;;32.03;14.02;;;;;;;14.22;100.00;98437.59;5019114;28;20061;-92
2023/06/16 01:31:12;;;;;;;27.52;14.15;;;;;;;14.41;100.00;98461.66;5017278;28;20484;-93
2023/06/16 01:33:39;;;;;;;36.28;15.75;;;;;;;14.21;100.00;98446.56;5019003;28;20421;-93
2023/06/16 01:36:06;;;;;;;33.28;15.57;;;;;;;14.41;100.00;98467.00;5018690;28;20069;-92
2023/06/16 01:38:33;;;;;;;30.65;15.15;;;;;;;14.32;100.00;98461.16;5019202;28;20054;-93
2023/06/16 01:41:02;;;;;;;35.50;15.27;;;;;;;14.27;100.00;98459.63;5018837;28;20080;-90
2023/06/16 01:43:31;;;;;;;31.67;14.95;;;;;;;14.27;100.00;98459.63;5018446;28;20103;-92
2023/06/16 01:45:56;;;;;;;;;;;;;;;14.34;100.00;98469.13;5019044;28;20131;-92
2023/06/16 01:48:23;;;;;;;36.55;16.33;;;;;;;14.24;100.00;98454.44;5019029;28;20331;-92
2023/06/16 01:50:49;;;;;;;38.72;16.48;;;;;;;14.33;100.00;98473.59;5018055;28;20046;-92
2023/06/16 01:53:15;;;;;;;36.97;17.10;;;;;;;14.22;100.00;98446.47;5019075;28;20033;-92
2023/06/16 01:55:46;;;;;;;39.90;16.73;;;;;;;14.20;100.00;98420.75;5018648;28;20104;-94
2023/06/16 01:58:12;;;;;;;34.28;16.33;;;;;;;14.29;100.00;98436.34;5018002;28;20049;-94
2023/06/16 02:00:47;;;;;;;36.42;16.92;;;;;;;14.21;100.00;98427.84;5018653;28;20575;-94
2023/06/16 02:03:18;;;;;;;39.17;16.33;;;;;;;14.12;100.00;98421.97;5018283;28;20046;-93
2023/06/16 02:05:47;;;;;;;36.83;17.13;;;;;;;14.10;100.00;98421.19;5020181;28;20046;-94
2023/06/16 02:08:15;;;;;;;;;;;;;;;14.36;100.00;98464.56;5024047;28;20056;-93
2023/06/16 02:10:41;;;;;;;31.90;15.52;;;;;;;14.36;100.00;98454.72;5020769;28;19924;-93
2023/06/16 02:13:07;;;;;;;33.65;15.55;;;;;;;14.16;100.00;98431.59;5022251;28;20136;-94
2023/06/16 02:15:33;;;;;;;31.67;15.50;;;;;;;14.21;100.00;98442.06;5038230;28;20045;-95
2023/06/16 02:18:02;;;;;;;33.47;16.30;;;;;;;14.28;100.00;98461.38;5021495;28;20037;-93
2023/06/16 02:20:28;;;;;;;35.92;16.55;;;;;;;14.24;100.00;98455.28;5021776;28;20064;-94
2023/06/16 02:22:54;;;;;;;30.48;15.50;;;;;;;14.12;100.00;98431.81;5026113;28;20038;-93
2023/06/16 02:25:20;;;;;;;31.00;14.43;;;;;;;14.07;100.00;98437.34;5026111;28;20037;-95
2023/06/16 02:27:46;;;;;;;33.42;15.10;;;;;;;14.10;100.00;98445.25;5025865;28;20037;-92
2023/06/16 02:30:13;;;;;;;32.83;13.88;;;;;;;14.14;100.00;98452.19;5028991;28;20136;-94
2023/06/16 02:32:39;;;;;;;31.67;15.30;;;;;;;14.10;100.00;98441.72;5020722;28;20077;-91
2023/06/16 02:35:07;;;;;;;28.65;13.77;;;;;;;14.08;100.00;98448.94;5022640;28;20033;-94
2023/06/16 02:37:35;;;;;;;32.65;14.82;;;;;;;14.01;100.00;98437.66;5021688;28;20037;-95
2023/06/16 02:40:01;;;;;;;28.20;14.32;;;;;;;14.17;100.00;98470.75;5021325;28;20095;-92
2023/06/16 02:42:27;;;;;;;30.05;13.95;;;;;;;13.99;100.00;98434.19;5002134;28;20129;-93
2023/06/16 02:44:53;;;;;;;28.20;14.10;;;;;;;14.01;100.00;98421.63;5022578;28;20072;-94
2023/06/16 02:47:19;;;;;;;25.83;14.30;;;;;;;14.05;100.00;98439.25;5023124;28;20129;-93
2023/06/16 02:49:45;;;;;;;30.27;14.55;;;;;;;14.14;100.00;98449.53;5021747;28;20045;-92
2023/06/16 02:52:12;;;;;;;30.60;14.43;;;;;;;13.96;100.00;98424.47;5028340;28;20037;-92
2023/06/16 02:54:40;;;;;;;26.55;13.10;;;;;;;14.15;100.00;98464.59;5024698;28;20514;-92
2023/06/16 02:57:07;;;;;;;29.45;13.60;;;;;;;14.10;100.00;98447.06;5021127;28;20511;-92
2023/06/16 02:59:33;;;;;;;30.77;14.07;;;;;;;14.06;100.00;98424.94;5020125;28;20049;-93
2023/06/16 03:01:59;;;;;;;27.73;13.45;;;;;;;14.15;100.00;98418.28;5020652;28;20095;-91
2023/06/16 03:04:25;;;;;;;25.75;13.55;;;;;;;14.08;100.00;98412.38;5023360;28;20046;-93
2023/06/16 03:06:53;;;;;;;25.55;13.23;;;;;;;14.15;100.00;98428.97;5043597;28;20054;-92
2023/06/16 03:09:21;;;;;;;27.95;13.35;;;;;;;14.29;100.00;98453.28;5023743;28;20061;-92
2023/06/16 03:11:47;;;;;;;33.05;14.35;;;;;;;14.18;100.00;98421.69;5020385;28;20065;-91
2023/06/16 03:14:13;;;;;;;25.35;14.18;;;;;;;14.42;100.00;98453.56;5020867;28;20053;-93
2023/06/16 03:16:40;;;;;;;29.02;13.68;;;;;;;14.39;100.00;98459.06;5021280;28;20140;-93
2023/06/16 03:19:06;;;;;;;30.67;13.80;;;;;;;14.28;100.00;98448.00;5020725;28;20045;-94
2023/06/16 03:21:32;;;;;;;29.52;14.05;;;;;;;14.10;100.00;98423.84;5020831;28;20454;-93
2023/06/16 03:23:58;;;;;;;29.67;14.55;;;;;;;14.28;100.00;98462.22;5020276;28;20418;-93
2023/06/16 03:26:25;;;;;;;29.02;14.23;;;;;;;14.04;100.00;98425.94;5020863;28;20404;-94
2023/06/16 03:28:51;;;;;;;32.38;14.65;;;;;;;14.07;100.00;98455.22;5028369;28;20076;-95
2023/06/16 03:31:17;;;;;;;27.90;14.05;;;;;;;14.00;100.00;98453.78;5037138;28;20395;-92
2023/06/16 03:33:43;;;;;;;28.80;13.27;;;;;;;13.86;100.00;98459.75;5035141;28;20068;-92
2023/06/16 03:36:09;;;;;;;27.90;13.90;;;;;;;13.68;100.00;98435.56;5021806;28;20049;-93
2023/06/16 03:38:35;;;;;;;27.65;14.00;;;;;;;13.85;100.00;98461.53;5020074;28;20503;-93
2023/06/16 03:41:01;;;;;;;25.70;13.30;;;;;;;13.65;100.00;98437.53;5020381;28;20526;-93
2023/06/16 03:43:29;;;;;;;24.10;12.40;;;;;;;13.81;100.00;98473.28;5025982;28;20072;-93
2023/06/16 03:45:55;;;;;;;24.25;12.50;;;;;;;13.68;100.00;98456.94;5020015;28;20148;-92
2023/06/16 03:48:21;;;;;;;23.17;13.15;;;;;;;13.60;100.00;98447.53;5019945;28;20056;-94
2023/06/16 03:50:47;;;;;;;25.35;13.30;;;;;;;13.62;100.00;98451.91;5020052;28;20050;-95
2023/06/16 03:53:13;;;;;;;26.40;13.98;;;;;;;13.56;100.00;98439.66;5023897;28;20053;-94
2023/06/16 03:55:39;;;;;;;24.33;13.10;;;;;;;13.77;100.00;98471.72;5024727;28;20048;-94
2023/06/16 03:58:07;;;;;;;24.27;12.40;;;;;;;13.67;100.00;98457.91;5021183;28;20042;-94
2023/06/16 04:00:35;;;;;;;26.15;12.73;;;;;;;13.79;100.00;98469.81;5020053;28;20053;-93
2023/06/16 04:03:02;;;;;;;24.45;12.90;;;;;;;13.71;100.00;98450.63;5038348;28;20044;-94
2023/06/16 04:05:29;;;;;;;26.65;12.73;;;;;;;13.76;100.00;98465.50;5020514;28;20076;-95
2023/06/16 04:07:56;;;;;;;24.80;13.18;;;;;;;13.89;100.00;98487.19;5020472;28;20058;-94
2023/06/16 04:10:22;;;;;;;27.05;12.68;;;;;;;13.74;100.00;98455.81;5024062;28;20068;-94
2023/06/16 04:12:48;;;;;;;24.15;12.95;;;;;;;14.00;100.00;98484.03;5020530;28;20542;-93
2023/06/16 04:15:14;;;;;;;21.42;12.20;;;;;;;13.81;100.00;98443.03;5021358;28;20053;-95
2023/06/16 04:17:42;;;;;;;21.10;12.35;;;;;;;14.02;100.00;98471.47;5021690;28;20045;-93
2023/06/16 04:20:11;;;;;;;23.85;12.88;;;;;;;13.98;100.00;98459.19;5037612;28;20546;-93
2023/06/16 04:22:37;;;;;;;;;;;;;;;14.20;100.00;98490.28;5026989;28;20057;-95
2023/06/16 04:25:03;;;;;;;21.10;12.02;;;;;;;14.05;100.00;98455.31;5024767;28;19932;-94
2023/06/16 04:27:33;;;;;;;21.80;12.35;;;;;;;14.21;100.00;98467.97;5036806;28;20100;-93
2023/06/16 04:30:05;;;;;;;23.98;12.55;;;;;;;14.13;100.00;98447.75;5020305;28;20108;-95
2023/06/16 04:32:34;;;;;;;25.05;13.25;;;;;;;14.21;100.00;98444.75;5022128;28;20033;-95
2023/06/16 04:35:04;;;;;;;24.55;12.55;;;;;;;14.30;100.00;98454.16;5020959;28;20045;-93
2023/06/16 04:37:30;;;;;;;23.50;12.23;;;;;;;14.29;100.00;98444.38;5020812;28;20042;-93
2023/06/16 04:39:56;;;;;;;20.65;11.27;;;;;;;14.34;100.00;98458.41;5021989;28;20033;-93
2023/06/16 04:42:22;;;;;;;26.67;12.02;;;;;;;14.41;100.00;98462.53;5021069;28;20103;-94
2023/06/16 04:44:49;;;;;;;25.92;12.23;;;;;;;14.55;100.00;98472.59;5023390;28;20099;-95
2023/06/16 04:47:15;;;;;;;22.35;12.57;;;;;;;14.63;100.00;98467.75;5021139;28;20042;-95
2023/06/16 04:49:41;;;;;;;19.67;11.73;;;;;;;14.78;100.00;98456.28;5021968;28;20060;-94
2023/06/16 04:52:09;;;;;;;22.83;12.00;;;;;;;15.28;100.00;98427.03;5022372;28;20133;-96
2023/06/16 04:54:35;;;;;;;22.70;11.55;;;;;;;16.08;100.00;98434.41;5021195;28;20052;-91
2023/06/16 04:57:01;;;;;;;22.13;10.98;;;;;;;16.92;100.00;98431.50;5021720;28;20107;-93
2023/06/16 04:59:27;;;;;;;20.60;11.27;;;;;;;17.58;100.00;98438.28;5022621;28;20049;-94
2023/06/16 05:01:53;;;;;;;21.58;11.10;;;;;;;18.00;100.00;98430.38;5021403;28;20056;-94
2023/06/16 05:04:19;;;;;;;23.45;11.25;;;;;;;18.38;100.00;98427.09;5022470;28;20106;-96
2023/06/16 05:06:45;;;;;;;22.63;11.93;;;;;;;18.84;100.00;98434.88;5022837;28;20100;-95
2023/06/16 05:09:12;;;;;;;23.77;11.55;;;;;;;19.34;100.00;98448.63;5039676;28;20076;-94
2023/06/16 05:11:39;;;;;;;31.48;12.55;;;;;;;19.61;100.00;98438.66;5029010;28;20053;-93
2023/06/16 05:14:05;;;;;;;20.35;11.73;;;;;;;19.86;100.00;98423.47;5022989;28;20043;-94
2023/06/16 05:16:31;;;;;;;23.42;12.02;;;;;;;19.94;100.00;98413.00;5022396;28;20047;-94
2023/06/16 05:18:57;;;;;;;21.17;10.98;;;;;;;20.05;97.73;98420.34;5023813;28;20442;-93
2023/06/16 05:21:25;;;;;;;24.13;12.30;;;;;;;19.87;95.45;98417.13;5026213;28;20052;-94
2023/06/16 05:23:51;;;;;;;23.00;12.05;;;;;;;19.94;97.00;98425.63;5043317;28;20526;-94
2023/06/16 05:26:20;;;;;;;26.15;12.77;;;;;;;19.78;96.43;98429.41;5026811;28;20046;-94
2023/06/16 05:28:46;;;;;;;24.77;12.80;;;;;;;19.80;100.00;98446.38;5022241;28;20136;-93
2023/06/16 05:31:12;;;;;;;21.50;12.85;;;;;;;20.04;98.03;98432.13;5022769;28;20526;-93
2023/06/16 05:33:38;;;;;;;24.45;12.20;;;;;;;20.13;96.89;98436.84;5021008;28;20140;-93
2023/06/16 05:36:04;;;;;;;23.08;12.43;;;;;;;20.33;96.08;98464.25;5018546;28;20042;-95
2023/06/16 05:38:31;;;;;;;27.98;12.23;;;;;;;20.21;95.84;98445.28;5034581;28;20069;-94
2023/06/16 05:40:57;;;;;;;25.60;12.70;;;;;;;20.45;95.37;98466.03;5023408;28;20136;-93
2023/06/16 05:43:24;;;;;;;23.48;11.88;;;;;;;20.28;95.53;98441.13;5020176;28;20056;-94
2023/06/16 05:45:50;;;;;;;27.58;12.18;;;;;;;20.49;95.72;98459.44;5017586;28;20068;-92
2023/06/16 05:48:16;;;;;;;26.67;12.30;;;;;;;20.58;95.08;98444.44;5029282;28;20149;-94
2023/06/16 05:50:43;;;;;;;22.92;12.85;;;;;;;20.92;91.84;98469.84;5016960;28;20037;-93
2023/06/16 05:53:08;;;;;;;23.67;11.55;;;;;;;20.91;93.92;98468.13;5019283;28;20430;-95
2023/06/16 05:55:34;;;;;;;20.73;11.52;;;;;;;20.94;89.71;98467.88;5022299;28;20049;-96
2023/06/16 05:58:01;;;;;;;26.05;12.40;;;;;;;20.63;89.84;98472.88;5021163;28;20045;-93
2023/06/16 06:00:28;;;;;;;31.55;12.70;;;;;;;20.24;93.09;98481.97;5022947;28;20569;-92
2023/06/16 06:02:54;;;;;;;32.28;12.40;;;;;;;20.46;92.46;98468.66;5037834;28;20037;-94
2023/06/16 06:05:20;;;;;;;22.80;12.25;;;;;;;20.77;92.72;98487.19;5037541;28;20080;-94
2023/06/16 06:07:46;;;;;;;22.67;12.10;;;;;;;21.10;90.06;98491.94;5038776;28;20057;-94
2023/06/16 06:10:12;;;;;;;22.17;11.73;;;;;;;21.50;89.47;98502.50;5030151;28;20144;-94
2023/06/16 06:12:38;;;;;;;24.67;12.52;;;;;;;21.44;88.74;98487.59;5022231;28;20037;-92
2023/06/16 06:15:05;;;;;;;24.75;11.88;;;;;;;21.43;86.72;98485.88;5022522;28;20491;-93
2023/06/16 06:17:32;;;;;;;21.92;11.45;;;;;;;21.61;85.81;98480.03;5021352;28;20038;-95
2023/06/16 06:19:58;;;;;;;22.88;12.90;;;;;;;21.31;85.98;98481.34;5023054;28;20056;-94
2023/06/16 06:22:31;;;;;;;24.42;13.25;;;;;;;21.32;89.15;98491.22;5022686;28;20025;-93
2023/06/16 06:24:57;;;;;;;21.48;12.10;;;;;;;21.57;88.13;98494.78;5021877;28;20037;-95
2023/06/16 06:27:23;;;;;;;24.08;12.07;;;;;;;21.74;88.25;98505.16;5022393;28;20080;-94
2023/06/16 06:29:49;;;;;;;26.73;13.27;;;;;;;21.73;87.63;98479.09;5020137;28;20467;-95
2023/06/16 06:32:15;;;;;;;27.02;12.18;;;;;;;21.95;86.07;98498.06;5021627;28;20041;-95
2023/06/16 06:34:43;;;;;;;22.20;11.75;;;;;;;22.12;85.16;98510.31;5022319;28;20053;-93
2023/06/16 06:37:16;;;;;;;22.65;11.52;;;;;;;22.30;84.54;98516.13;5021567;28;20046;-93
2023/06/16 06:39:42;;;;;;;22.55;12.63;;;;;;;22.49;84.19;98511.97;5021256;28;20557;-93
2023/06/16 06:42:09;;;;;;;27.83;12.02;;;;;;;22.50;82.62;98484.72;5039542;28;20046;-95
2023/06/16 06:44:36;;;;;;;24.40;11.43;;;;;;;22.69;81.95;98515.78;5023845;28;20044;-96
2023/06/16 06:47:02;;;;;;;25.02;12.02;;;;;;;22.57;83.25;98493.22;5027013;28;20071;-92
2023/06/16 06:49:28;;;;;;;21.42;11.30;;;;;;;22.67;81.67;98486.09;5027036;28;20052;-94
2023/06/16 06:51:56;;;;;;;26.42;12.00;;;;;;;22.70;81.66;98491.25;5025680;28;20096;-96
2023/06/16 06:54:22;;;;;;;27.02;13.23;;;;;;;22.69;80.49;98481.41;5022771;28;20049;-96
2023/06/16 06:56:48;;;;;;;26.77;12.38;;;;;;;22.79;81.54;98480.63;5023786;28;20072;-93
2023/06/16 06:59:14;;;;;;;19.40;11.30;;;;;;;22.86;79.96;98481.88;5024237;28;20050;-94
2023/06/16 07:01:40;;;;;;;24.42;12.40;;;;;;;22.92;80.48;98484.94;5027465;28;20076;-95
2023/06/16 07:04:07;;;;;;;24.48;12.00;;;;;;;23.12;79.91;98482.47;5027880;28;20041;-94
2023/06/16 07:06:33;;;;;;;22.27;11.57;;;;;;;23.29;79.39;98487.34;5026198;28;20076;-95
2023/06/16 07:09:00;;;;;;;22.30;12.10;;;;;;;23.53;78.05;98497.09;5041187;28;20046;-94
2023/06/16 07:11:27;;;;;;;21.00;11.80;;;;;;;23.49;76.77;98485.66;5024834;28;20045;-95
2023/06/16 07:13:53;;;;;;;23.17;11.88;;;;;;;23.60;77.33;98478.47;5023357;28;20046;-95
2023/06/16 07:16:19;;;;;;;20.77;11.65;;;;;;;23.79;77.96;98503.06;5023008;28;20046;-94
2023/06/16 07:18:45;;;;;;;23.40;12.23;;;;;;;24.12;75.93;98498.44;5037075;28;20053;-94
2023/06/16 07:21:11;;;;;;;19.83;10.10;;;;;;;23.90;73.56;98481.28;5021459;28;20053;-94
2023/06/16 07:23:37;;;;;;;19.92;10.98;;;;;;;24.06;73.70;98501.66;5037205;28;20050;-95
2023/06/16 07:26:05;;;;;;;16.15;11.07;;;;;;;22.68;76.21;98509.47;5017768;28;20041;-93
2023/06/16 07:28:31;;;;;;;23.13;12.10;;;;;;;22.84;78.41;98505.53;5018213;28;20046;-93
2023/06/16 07:30:57;;;;;;;19.45;10.95;;;;;;;23.02;75.01;98485.06;5019046;28;20084;-93
2023/06/16 07:33:23;;;;;;;21.08;11.55;;;;;;;23.14;75.60;98497.63;5035789;28;20141;-93
2023/06/16 07:35:49;;;;;;;18.40;10.80;;;;;;;23.54;73.90;98485.25;5019828;28;20045;-94
2023/06/16 07:38:15;;;;;;;18.00;10.98;;;;;;;23.69;73.70;98480.38;5022766;28;20180;-94
2023/06/16 07:40:42;;;;;;;17.60;10.50;;;;;;;23.80;65.72;98493.91;5019927;28;20077;-96
2023/06/16 07:43:09;;;;;;;17.77;9.95;;;;;;;23.73;65.94;98479.13;5018332;28;20500;-94
2023/06/16 07:45:35;;;;;;;18.35;10.02;;;;;;;23.85;61.80;98491.66;5022890;28;20133;-94
2023/06/16 07:48:02;;;;;;;16.33;10.40;;;;;;;23.81;62.37;98484.75;5024683;28;20084;-93
2023/06/16 07:50:29;;;;;;;17.55;11.02;;;;;;;23.51;64.20;98488.25;5019149;28;20046;-94
2023/06/16 07:52:55;;;;;;;16.60;9.73;;;;;;;24.01;63.55;98490.31;5026704;28;20385;-95
2023/06/16 07:55:22;;;;;;;18.63;11.35;;;;;;;24.25;63.52;98482.75;5024962;28;20046;-94
2023/06/16 07:57:48;;;;;;;16.27;10.45;;;;;;;24.54;58.38;98503.81;5027057;28;20045;-94
2023/06/16 08:00:18;;;;;;;177.75;90.32;;;;;;;24.78;58.05;98492.59;5023134;28;20049;-95
2023/06/16 08:02:45;;;;;;;22.75;14.70;;;;;;;24.37;58.46;98467.22;5021780;28;20042;-96
2023/06/16 08:05:12;;;;;;;20.42;12.13;;;;;;;24.54;59.41;98472.03;5022472;28;20046;-96
2023/06/16 08:07:38;;;;;;;22.30;13.10;;;;;;;24.95;56.66;98458.44;5023073;28;20054;-95
2023/06/16 08:10:05;;;;;;;20.27;10.77;;;;;;;24.78;56.98;98452.66;5021718;28;20045;-93
2023/06/16 08:12:32;;;;;;;20.67;11.07;;;;;;;25.39;55.00;98451.66;5037834;28;20045;-95
2023/06/16 08:14:58;;;;;;;17.90;10.43;;;;;;;25.70;53.76;98469.66;5021053;28;20042;-95
2023/06/16 08:17:26;;;;;;;16.65;10.30;;;;;;;25.62;50.34;98473.97;5019684;28;20046;-95
2023/06/16 08:19:53;;;;;;;17.80;9.98;;;;;;;25.99;49.13;98481.41;5020011;28;20145;-95
2023/06/16 08:22:19;;;;;;;17.10;10.57;;;;;;;26.03;47.68;98463.78;5021739;28;20141;-95
2023/06/16 08:24:45;;;;;;;26.45;18.05;;;;;;;26.07;44.91;98477.97;5021183;28;20069;-95
2023/06/16 08:27:11;;;;;;;27.63;18.83;;;;;;;25.46;44.04;98465.53;5019400;28;20068;-93
2023/06/16 08:29:39;;;;;;;18.20;10.45;;;;;;;24.66;47.63;98483.69;5020381;28;20045;-93
2023/06/16 08:32:06;;;;;;;16.55;11.02;;;;;;;25.00;46.77;98457.03;5021718;28;20105;-95
2023/06/16 08:34:35;;;;;;;16.88;9.07;;;;;;;25.40;47.13;98479.72;5023183;28;20053;-93
2023/06/16 08:37:02;;;;;;;19.88;11.95;;;;;;;25.49;42.94;98453.50;5020559;28;20049;-93
2023/06/16 08:39:28;;;;;;;22.77;13.13;;;;;;;25.50;44.76;98460.66;5000965;28;20050;-94
2023/06/16 08:41:55;;;;;;;15.70;9.05;;;;;;;25.49;41.99;98462.53;5002350;28;20046;-94
2023/06/16 08:44:21;;;;;;;44.63;31.10;;;;;;;25.64;40.02;98460.22;5002834;28;20065;-95
2023/06/16 08:46:48;;;;;;;15.52;9.13;;;;;;;25.27;41.79;98473.69;5014423;28;20072;-94
2023/06/16 08:49:16;;;;;;;15.43;9.27;;;;;;;25.70;42.49;98466.94;5021798;28;20054;-93
2023/06/16 08:51:48;;;;;;;14.45;8.05;;;;;;;25.69;42.22;98463.34;5019455;28;20069;-94
2023/06/16 08:54:14;;;;;;;10.93;7.30;;;;;;;25.44;41.54;98464.81;5020348;28;20057;-96
2023/06/16 08:56:43;;;;;;;14.50;8.48;;;;;;;25.12;42.24;98463.19;5016901;28;20065;-94
2023/06/16 08:59:10;;;;;;;16.45;9.48;;;;;;;24.87;44.25;98460.97;5015625;28;20053;-94
2023/06/16 09:01:40;;;;;;;340.30;117.20;;;;;;;25.23;43.58;98464.09;5020948;28;20053;-95
2023/06/16 09:04:12;;;;;;;55.15;25.88;;;;;;;25.40;44.32;98447.91;5021578;28;20053;-95
2023/06/16 09:06:48;;;;;;;12.98;8.82;;;;;;;26.01;42.73;98487.59;5023896;28;20050;-95
2023/06/16 09:09:17;;;;;;;22.70;15.57;;;;;;;26.06;43.09;98459.03;5025190;28;20499;-95
2023/06/16 09:11:43;;;;;;;14.90;9.43;;;;;;;26.36;41.04;98482.47;5024934;28;20042;-96
2023/06/16 09:14:14;;;;;;;13.68;7.70;;;;;;;25.77;42.82;98457.19;5024673;28;20049;-95
2023/06/16 09:16:41;;;;;;;13.07;8.30;;;;;;;26.14;41.39;98445.53;5019534;28;20113;-95
2023/06/16 09:19:08;;;;;;;11.07;7.38;;;;;;;25.10;40.94;98446.13;5015724;28;20491;-95
2023/06/16 09:21:35;;;;;;;10.93;7.53;;;;;;;24.95;43.66;98450.28;5019263;28;20415;-93
2023/06/16 09:24:02;;;;;;;12.45;8.32;;;;;;;25.52;43.58;98440.44;5034642;28;20053;-93
2023/06/16 09:26:35;;;;;;;11.50;7.65;;;;;;;25.91;42.12;98440.41;5020533;28;20046;-95
2023/06/16 09:29:02;;;;;;;12.40;7.03;;;;;;;25.94;40.39;98459.22;5022655;28;20050;-96
2023/06/16 09:31:28;;;;;;;11.90;7.03;;;;;;;26.14;41.17;98443.66;5023839;28;20042;-95
2023/06/16 09:34:07;;;;;;;12.85;7.57;;;;;;;26.10;40.54;98441.38;5024711;28;20078;-95
2023/06/16 09:36:33;;;;;;;17.77;11.43;;;;;;;25.83;39.50;98438.41;5025021;28;20057;-95
2023/06/16 09:38:59;;;;;;;12.77;7.05;;;;;;;26.12;40.85;98439.38;5039367;28;20489;-96
2023/06/16 09:41:25;;;;;;;9.90;7.07;;;;;;;26.26;39.97;98446.19;5023803;28;20074;-94
2023/06/16 09:43:52;;;;;;;10.98;7.85;;;;;;;26.44;39.79;98463.50;5039266;28;20396;-94
2023/06/16 09:46:18;;;;;;;16.65;11.20;;;;;;;25.96;40.98;98456.34;5033216;28;20096;-95
2023/06/16 09:48:46;;;;;;;13.20;7.97;;;;;;;25.85;40.33;98459.19;5022238;28;20054;-94
2023/06/16 09:51:15;;;;;;;12.23;7.20;;;;;;;25.85;39.60;98462.78;5025155;28;20049;-93
2023/06/16 09:53:41;;;;;;;12.65;7.47;;;;;;;25.91;39.87;98455.91;5019346;28;20092;-95
2023/06/16 09:56:11;;;;;;;9.70;6.45;;;;;;;26.08;38.55;98457.03;5025970;28;20049;-95
2023/06/16 09:58:37;;;;;;;10.90;8.02;;;;;;;25.98;38.85;98463.38;5023849;28;20053;-94
2023/06/16 10:01:13;;;;;;;8.88;6.40;;;;;;;26.09;39.43;98466.91;5023022;28;20042;-95
2023/06/16 10:03:41;;;;;;;11.43;8.02;;;;;;;26.00;38.12;98463.19;5023470;28;20041;-94
2023/06/16 10:06:14;;;;;;;11.60;7.15;;;;;;;26.07;39.30;98455.28;5024620;28;20068;-94
2023/06/16 10:08:42;;;;;;;10.15;6.55;;;;;;;25.75;38.25;98459.22;5021424;28;20034;-94
2023/06/16 10:11:11;;;;;;;8.65;6.78;;;;;;;25.09;40.14;98454.44;5016712;28;20041;-92
2023/06/16 10:13:49;;;;;;;12.40;6.70;;;;;;;25.69;39.48;98457.06;5022705;28;20065;-93
2023/06/16 10:16:20;;;;;;;11.10;6.65;;;;;;;25.72;38.38;98449.47;5019185;28;20045;-92
2023/06/16 10:18:51;;;;;;;10.18;6.85;;;;;;;26.09;38.07;98461.44;5023699;28;20041;-94
2023/06/16 10:21:18;;;;;;;9.98;6.32;;;;;;;26.18;38.30;98460.59;5022579;28;20046;-93
2023/06/16 10:23:47;;;;;;;10.35;6.10;;;;;;;25.89;40.35;98502.34;5021656;28;20038;-93
2023/06/16 10:26:14;;;;;;;10.45;6.80;;;;;;;26.01;39.03;98465.78;5023988;28;20482;-93
2023/06/16 10:28:41;;;;;;;19.92;14.15;;;;;;;25.79;39.54;98474.25;5021145;28;20042;-93
2023/06/16 10:31:11;;;;;;;8.52;6.38;;;;;;;26.02;38.19;98474.81;5020189;28;20128;-94
2023/06/16 10:33:53;;;;;;;9.02;6.65;;;;;;;26.50;37.74;98457.47;5023572;28;20042;-94
2023/06/16 10:36:22;;;;;;;8.88;6.35;;;;;;;26.86;36.95;98443.09;5023947;28;20164;-93
2023/06/16 10:38:55;;;;;;;11.15;6.63;;;;;;;26.91;38.17;98452.50;5027456;28;20169;-95
2023/06/16 10:41:24;;;;;;;8.90;6.00;;;;;;;26.94;36.00;98462.28;5030610;28;20041;-96
2023/06/16 10:44:27;;;;;;;8.93;6.10;;;;;;;26.75;36.75;98474.16;5026489;28;20424;-95
2023/06/16 10:47:36;;;;;;;7.95;5.80;;;;;;;27.13;36.01;98485.84;5024994;28;20042;-94
2023/06/16 10:50:04;;;;;;;10.38;6.63;;;;;;;26.53;37.48;98445.38;5019942;28;20049;-93
2023/06/16 10:52:51;;;;;;;8.40;6.07;;;;;;;26.15;37.34;98441.78;5021503;28;20046;-94
2023/06/16 10:55:25;;;;;;;9.15;5.75;;;;;;;26.00;38.51;98449.56;5021376;28;20049;-94
2023/06/16 10:57:57;;;;;;;8.82;5.95;;;;;;;25.32;39.74;98471.41;5020140;28;20045;-95
2023/06/16 11:00:27;;;;;;;10.20;6.10;;;;;;;25.72;38.56;98443.13;5018497;28;20518;-95
2023/06/16 11:03:00;;;;;;;8.45;6.25;;;;;;;25.74;41.11;98439.28;5016738;28;20054;-92
2023/06/16 11:05:38;;;;;;;9.63;6.43;;;;;;;26.26;38.11;98454.38;5001918;28;20051;-95
2023/06/16 11:08:16;;;;;;;7.45;6.07;;;;;;;25.69;39.21;98433.41;5003695;28;20058;-96
2023/06/16 11:10:57;;;;;;;10.80;6.30;;;;;;;25.80;38.42;98432.38;5007272;28;20046;-95
2023/06/16 11:13:27;;;;;;;9.90;6.15;;;;;;;25.54;39.63;98416.66;5006240;28;20046;-96
2023/06/16 11:15:54;;;;;;;12.30;6.05;;;;;;;26.03;40.47;98441.97;5005900;28;20054;-95
2023/06/16 11:18:24;;;;;;;9.15;5.90;;;;;;;26.02;39.37;98432.09;5005198;28;20050;-96
2023/06/16 11:20:55;;;;;;;7.75;5.85;;;;;;;26.10;40.29;98444.97;5001989;28;20047;-94